sensor_id;sensor_type;location;lat;lon;timestamp;temperature;humidity
17918;DHT22;9084;50.956;3.106;2023-12-04T00:02:20;3.20;1.00
17918;DHT22;9084;50.956;3.106;2023-12-04T00:04:51;3.20;1.00
17918;DHT22;9084;50.956;3.106;2023-12-04T00:07:16;3.20;1.00
17918;DHT22;9084;50.956;3.106;2023-12-04T00:09:42;3.10;1.00
17918;DHT22;9084;50.956;3.106;2023-12-04T00:12:13;3.10;1.00
17918;DHT22;9084;50.956;3.106;2023-12-04T00:14:38;3.10;1.00
17918;DHT22;9084;50.956;3.106;2023-12-04T00:17:04;3.10;1.00
17918;DHT22;9084;50.956;3.106;2023-12-04T00:19:29;3.10;1.00
17918;DHT22;9084;50.956;3.106;2023-12-04T00:21:55;3.10;1.00
17918;DHT22;9084;50.956;3.106;2023-12-04T00:24:25;3.10;1.00
17918;DHT22;9084;50.956;3.106;2023-12-04T00:26:51;3.10;1.00
17918;DHT22;9084;50.956;3.106;2023-12-04T00:29:16;3.10;1.00
17918;DHT22;9084;50.956;3.106;2023-12-04T00:31:42;3.10;1.00
17918;DHT22;9084;50.956;3.106;2023-12-04T00:34:07;3.10;1.00
17918;DHT22;9084;50.956;3.106;2023-12-04T00:36:35;3.10;1.00
17918;DHT22;9084;50.956;3.106;2023-12-04T00:39:01;3.10;1.00
17918;DHT22;9084;50.956;3.106;2023-12-04T00:41:29;3.00;1.00
17918;DHT22;9084;50.956;3.106;2023-12-04T00:43:55;3.10;1.00
17918;DHT22;9084;50.956;3.106;2023-12-04T00:46:21;3.10;1.00
17918;DHT22;9084;50.956;3.106;2023-12-04T00:48:49;3.10;1.00
17918;DHT22;9084;50.956;3.106;2023-12-04T00:51:17;3.10;1.00
17918;DHT22;9084;50.956;3.106;2023-12-04T00:53:45;3.10;1.00
17918;DHT22;9084;50.956;3.106;2023-12-04T00:56:11;3.10;1.00
17918;DHT22;9084;50.956;3.106;2023-12-04T00:58:36;3.10;1.00
17918;DHT22;9084;50.956;3.106;2023-12-04T01:01:02;3.10;1.00
17918;DHT22;9084;50.956;3.106;2023-12-04T01:03:32;3.10;1.00
17918;DHT22;9084;50.956;3.106;2023-12-04T01:05:59;3.10;1.00
17918;DHT22;9084;50.956;3.106;2023-12-04T01:08:25;3.10;1.00
17918;DHT22;9084;50.956;3.106;2023-12-04T01:10:51;3.10;1.00
17918;DHT22;9084;50.956;3.106;2023-12-04T01:13:21;3.10;1.00
17918;DHT22;9084;50.956;3.106;2023-12-04T01:15:46;3.20;1.00
17918;DHT22;9084;50.956;3.106;2023-12-04T01:18:13;3.10;1.00
17918;DHT22;9084;50.956;3.106;2023-12-04T01:20:39;3.10;1.00
17918;DHT22;9084;50.956;3.106;2023-12-04T01:23:05;3.10;1.00
17918;DHT22;9084;50.956;3.106;2023-12-04T01:25:33;3.20;1.00
17918;DHT22;9084;50.956;3.106;2023-12-04T01:27:58;3.20;1.00
17918;DHT22;9084;50.956;3.106;2023-12-04T01:30:24;3.10;1.00
17918;DHT22;9084;50.956;3.106;2023-12-04T01:32:50;3.20;1.00
17918;DHT22;9084;50.956;3.106;2023-12-04T01:35:16;3.20;1.00
17918;DHT22;9084;50.956;3.106;2023-12-04T01:37:43;3.20;1.00
17918;DHT22;9084;50.956;3.106;2023-12-04T01:40:12;3.20;1.00
17918;DHT22;9084;50.956;3.106;2023-12-04T01:42:37;3.20;1.00
17918;DHT22;9084;50.956;3.106;2023-12-04T01:45:03;3.20;1.00
17918;DHT22;9084;50.956;3.106;2023-12-04T01:47:32;3.20;1.00
17918;DHT22;9084;50.956;3.106;2023-12-04T01:49:58;3.20;1.00
17918;DHT22;9084;50.956;3.106;2023-12-04T01:52:24;3.20;1.00
17918;DHT22;9084;50.956;3.106;2023-12-04T01:54:49;3.30;1.00
17918;DHT22;9084;50.956;3.106;2023-12-04T01:57:15;3.30;1.00
17918;DHT22;9084;50.956;3.106;2023-12-04T01:59:44;3.30;1.00
17918;DHT22;9084;50.956;3.106;2023-12-04T02:02:13;3.30;1.00
17918;DHT22;9084;50.956;3.106;2023-12-04T02:04:39;3.30;1.00
17918;DHT22;9084;50.956;3.106;2023-12-04T02:07:04;3.30;1.00
17918;DHT22;9084;50.956;3.106;2023-12-04T02:09:30;3.30;1.00
17918;DHT22;9084;50.956;3.106;2023-12-04T02:11:56;3.40;1.00
17918;DHT22;9084;50.956;3.106;2023-12-04T02:14:25;3.30;1.00
17918;DHT22;9084;50.956;3.106;2023-12-04T02:16:53;3.30;1.00
17918;DHT22;9084;50.956;3.106;2023-12-04T02:19:20;3.30;1.00
17918;DHT22;9084;50.956;3.106;2023-12-04T02:21:46;3.30;1.00
17918;DHT22;9084;50.956;3.106;2023-12-04T02:24:11;3.40;1.00
17918;DHT22;9084;50.956;3.106;2023-12-04T02:27:10;3.40;1.00
17918;DHT22;9084;50.956;3.106;2023-12-04T02:29:51;3.30;1.00
17918;DHT22;9084;50.956;3.106;2023-12-04T02:32:21;3.40;1.00
17918;DHT22;9084;50.956;3.106;2023-12-04T02:34:47;3.40;1.00
17918;DHT22;9084;50.956;3.106;2023-12-04T02:37:15;3.40;1.00
17918;DHT22;9084;50.956;3.106;2023-12-04T02:39:44;3.50;99.90
17918;DHT22;9084;50.956;3.106;2023-12-04T02:42:11;3.50;99.90
17918;DHT22;9084;50.956;3.106;2023-12-04T02:44:39;3.40;99.90
17918;DHT22;9084;50.956;3.106;2023-12-04T02:47:07;3.40;99.90
17918;DHT22;9084;50.956;3.106;2023-12-04T02:49:37;3.50;99.90
17918;DHT22;9084;50.956;3.106;2023-12-04T02:52:03;3.50;99.90
17918;DHT22;9084;50.956;3.106;2023-12-04T02:54:31;3.50;99.90
17918;DHT22;9084;50.956;3.106;2023-12-04T02:56:56;3.50;99.90
17918;DHT22;9084;50.956;3.106;2023-12-04T02:59:22;3.50;25.40
17918;DHT22;9084;50.956;3.106;2023-12-04T03:01:48;3.50;99.90
17918;DHT22;9084;50.956;3.106;2023-12-04T03:04:16;3.50;99.90
17918;DHT22;9084;50.956;3.106;2023-12-04T03:06:41;3.50;1.00
17918;DHT22;9084;50.956;3.106;2023-12-04T03:09:07;3.50;1.00
17918;DHT22;9084;50.956;3.106;2023-12-04T03:11:33;3.50;1.00
17918;DHT22;9084;50.956;3.106;2023-12-04T03:14:00;3.60;1.00
17918;DHT22;9084;50.956;3.106;2023-12-04T03:16:27;3.60;1.00
17918;DHT22;9084;50.956;3.106;2023-12-04T03:18:52;3.70;1.00
17918;DHT22;9084;50.956;3.106;2023-12-04T03:21:20;3.60;1.00
17918;DHT22;9084;50.956;3.106;2023-12-04T03:23:48;3.70;1.00
17918;DHT22;9084;50.956;3.106;2023-12-04T03:26:14;3.70;1.00
17918;DHT22;9084;50.956;3.106;2023-12-04T03:28:42;3.70;1.00
17918;DHT22;9084;50.956;3.106;2023-12-04T03:31:08;3.70;1.00
17918;DHT22;9084;50.956;3.106;2023-12-04T03:33:36;3.70;1.00
17918;DHT22;9084;50.956;3.106;2023-12-04T03:36:04;3.80;1.00
17918;DHT22;9084;50.956;3.106;2023-12-04T03:38:32;3.80;1.00
17918;DHT22;9084;50.956;3.106;2023-12-04T03:41:00;3.80;1.00
17918;DHT22;9084;50.956;3.106;2023-12-04T03:43:26;3.80;1.00
17918;DHT22;9084;50.956;3.106;2023-12-04T03:45:51;3.80;1.00
17918;DHT22;9084;50.956;3.106;2023-12-04T03:48:17;3.80;1.00
17918;DHT22;9084;50.956;3.106;2023-12-04T03:50:43;3.80;1.00
17918;DHT22;9084;50.956;3.106;2023-12-04T03:53:08;3.90;1.00
17918;DHT22;9084;50.956;3.106;2023-12-04T03:55:34;3.90;1.00
17918;DHT22;9084;50.956;3.106;2023-12-04T03:58:04;3.80;1.00
17918;DHT22;9084;50.956;3.106;2023-12-04T04:00:32;3.90;1.00
17918;DHT22;9084;50.956;3.106;2023-12-04T04:02:57;3.80;1.00
17918;DHT22;9084;50.956;3.106;2023-12-04T04:05:23;3.80;1.00
17918;DHT22;9084;50.956;3.106;2023-12-04T04:07:49;3.80;1.00
17918;DHT22;9084;50.956;3.106;2023-12-04T04:10:14;3.90;1.00
17918;DHT22;9084;50.956;3.106;2023-12-04T04:12:40;3.90;1.00
17918;DHT22;9084;50.956;3.106;2023-12-04T04:15:08;3.90;1.00
17918;DHT22;9084;50.956;3.106;2023-12-04T04:17:36;3.90;1.00
17918;DHT22;9084;50.956;3.106;2023-12-04T04:20:06;3.90;1.00
17918;DHT22;9084;50.956;3.106;2023-12-04T04:22:32;3.90;99.90
17918;DHT22;9084;50.956;3.106;2023-12-04T04:25:05;3.90;99.90
17918;DHT22;9084;50.956;3.106;2023-12-04T04:27:31;3.90;1.00
17918;DHT22;9084;50.956;3.106;2023-12-04T04:30:00;4.00;99.90
17918;DHT22;9084;50.956;3.106;2023-12-04T04:32:25;4.00;99.90
17918;DHT22;9084;50.956;3.106;2023-12-04T04:34:51;4.00;99.90
17918;DHT22;9084;50.956;3.106;2023-12-04T04:37:19;4.00;1.00
17918;DHT22;9084;50.956;3.106;2023-12-04T04:39:48;4.00;1.00
17918;DHT22;9084;50.956;3.106;2023-12-04T04:42:14;4.00;1.00
17918;DHT22;9084;50.956;3.106;2023-12-04T04:44:42;4.00;1.00
17918;DHT22;9084;50.956;3.106;2023-12-04T04:47:07;3.90;1.00
17918;DHT22;9084;50.956;3.106;2023-12-04T04:49:33;3.90;1.00
17918;DHT22;9084;50.956;3.106;2023-12-04T04:51:59;3.90;1.00
17918;DHT22;9084;50.956;3.106;2023-12-04T04:54:26;4.00;1.00
17918;DHT22;9084;50.956;3.106;2023-12-04T04:56:52;4.00;1.00
17918;DHT22;9084;50.956;3.106;2023-12-04T04:59:18;3.90;1.00
17918;DHT22;9084;50.956;3.106;2023-12-04T05:01:43;3.80;1.00
17918;DHT22;9084;50.956;3.106;2023-12-04T05:04:09;3.90;1.00
17918;DHT22;9084;50.956;3.106;2023-12-04T05:06:34;3.90;1.00
17918;DHT22;9084;50.956;3.106;2023-12-04T05:09:02;3.80;1.00
17918;DHT22;9084;50.956;3.106;2023-12-04T05:11:29;3.80;53.00
17918;DHT22;9084;50.956;3.106;2023-12-04T05:13:57;3.80;1.00
17918;DHT22;9084;50.956;3.106;2023-12-04T05:16:23;3.90;1.00
17918;DHT22;9084;50.956;3.106;2023-12-04T05:18:48;3.90;1.00
17918;DHT22;9084;50.956;3.106;2023-12-04T05:21:14;3.80;1.00
17918;DHT22;9084;50.956;3.106;2023-12-04T05:23:42;3.90;1.00
17918;DHT22;9084;50.956;3.106;2023-12-04T05:26:07;3.90;1.00
17918;DHT22;9084;50.956;3.106;2023-12-04T05:28:34;3.90;1.00
17918;DHT22;9084;50.956;3.106;2023-12-04T05:31:04;3.90;1.00
17918;DHT22;9084;50.956;3.106;2023-12-04T05:33:32;3.90;99.90
17918;DHT22;9084;50.956;3.106;2023-12-04T05:36:00;3.90;1.00
17918;DHT22;9084;50.956;3.106;2023-12-04T05:38:30;3.90;1.00
17918;DHT22;9084;50.956;3.106;2023-12-04T05:40:55;3.90;1.00
17918;DHT22;9084;50.956;3.106;2023-12-04T05:43:21;3.80;99.90
17918;DHT22;9084;50.956;3.106;2023-12-04T05:45:47;3.90;1.00
17918;DHT22;9084;50.956;3.106;2023-12-04T05:48:14;3.80;1.00
17918;DHT22;9084;50.956;3.106;2023-12-04T05:50:40;3.80;1.00
17918;DHT22;9084;50.956;3.106;2023-12-04T05:53:09;3.80;99.90
17918;DHT22;9084;50.956;3.106;2023-12-04T05:55:34;3.80;99.90
17918;DHT22;9084;50.956;3.106;2023-12-04T05:58:00;3.80;99.90
17918;DHT22;9084;50.956;3.106;2023-12-04T06:00:25;3.70;99.90
17918;DHT22;9084;50.956;3.106;2023-12-04T06:02:53;3.70;99.10
17918;DHT22;9084;50.956;3.106;2023-12-04T06:05:21;3.70;99.90
17918;DHT22;9084;50.956;3.106;2023-12-04T06:07:49;3.80;50.50
17918;DHT22;9084;50.956;3.106;2023-12-04T06:10:15;3.80;1.00
17918;DHT22;9084;50.956;3.106;2023-12-04T06:12:43;3.90;1.00
17918;DHT22;9084;50.956;3.106;2023-12-04T06:15:09;3.90;1.00
17918;DHT22;9084;50.956;3.106;2023-12-04T06:17:37;3.90;1.00
17918;DHT22;9084;50.956;3.106;2023-12-04T06:20:03;3.90;1.00
17918;DHT22;9084;50.956;3.106;2023-12-04T06:22:29;4.00;1.00
17918;DHT22;9084;50.956;3.106;2023-12-04T06:24:55;4.00;1.00
17918;DHT22;9084;50.956;3.106;2023-12-04T06:27:21;4.00;1.00
17918;DHT22;9084;50.956;3.106;2023-12-04T06:29:47;4.00;1.00
17918;DHT22;9084;50.956;3.106;2023-12-04T06:32:14;4.00;1.00
17918;DHT22;9084;50.956;3.106;2023-12-04T06:34:40;4.00;1.00
17918;DHT22;9084;50.956;3.106;2023-12-04T06:37:11;4.00;1.00
17918;DHT22;9084;50.956;3.106;2023-12-04T06:39:38;3.90;99.90
17918;DHT22;9084;50.956;3.106;2023-12-04T06:42:06;3.90;99.90
17918;DHT22;9084;50.956;3.106;2023-12-04T06:44:32;3.80;1.00
17918;DHT22;9084;50.956;3.106;2023-12-04T06:47:00;3.80;1.00
17918;DHT22;9084;50.956;3.106;2023-12-04T06:49:29;3.70;1.00
17918;DHT22;9084;50.956;3.106;2023-12-04T06:51:55;3.70;1.00
17918;DHT22;9084;50.956;3.106;2023-12-04T06:54:26;3.70;1.00
17918;DHT22;9084;50.956;3.106;2023-12-04T06:56:51;3.60;1.00
17918;DHT22;9084;50.956;3.106;2023-12-04T06:59:23;3.60;1.00
17918;DHT22;9084;50.956;3.106;2023-12-04T07:01:48;3.60;1.00
17918;DHT22;9084;50.956;3.106;2023-12-04T07:04:15;3.50;1.00
17918;DHT22;9084;50.956;3.106;2023-12-04T07:06:46;3.50;1.00
17918;DHT22;9084;50.956;3.106;2023-12-04T07:09:14;3.50;1.00
17918;DHT22;9084;50.956;3.106;2023-12-04T07:11:45;3.40;1.00
17918;DHT22;9084;50.956;3.106;2023-12-04T07:14:11;3.40;1.00
17918;DHT22;9084;50.956;3.106;2023-12-04T07:16:41;3.50;1.00
17918;DHT22;9084;50.956;3.106;2023-12-04T07:19:08;3.40;1.00
17918;DHT22;9084;50.956;3.106;2023-12-04T07:21:34;3.40;1.00
17918;DHT22;9084;50.956;3.106;2023-12-04T07:24:00;3.50;1.00
17918;DHT22;9084;50.956;3.106;2023-12-04T07:26:25;3.50;1.00
17918;DHT22;9084;50.956;3.106;2023-12-04T07:28:53;3.40;1.00
17918;DHT22;9084;50.956;3.106;2023-12-04T07:31:19;3.40;1.00
17918;DHT22;9084;50.956;3.106;2023-12-04T07:33:45;3.40;1.00
17918;DHT22;9084;50.956;3.106;2023-12-04T07:36:13;3.50;1.00
17918;DHT22;9084;50.956;3.106;2023-12-04T07:38:40;3.40;1.00
17918;DHT22;9084;50.956;3.106;2023-12-04T07:41:06;3.50;1.00
17918;DHT22;9084;50.956;3.106;2023-12-04T07:43:32;3.50;1.00
17918;DHT22;9084;50.956;3.106;2023-12-04T07:45:57;3.50;1.00
17918;DHT22;9084;50.956;3.106;2023-12-04T07:48:23;3.50;1.00
17918;DHT22;9084;50.956;3.106;2023-12-04T07:50:51;3.50;1.00
17918;DHT22;9084;50.956;3.106;2023-12-04T07:53:17;3.50;1.00
17918;DHT22;9084;50.956;3.106;2023-12-04T07:55:44;3.50;1.00
17918;DHT22;9084;50.956;3.106;2023-12-04T07:58:14;3.50;1.00
17918;DHT22;9084;50.956;3.106;2023-12-04T08:00:40;3.50;1.00
17918;DHT22;9084;50.956;3.106;2023-12-04T08:03:09;3.40;1.00
17918;DHT22;9084;50.956;3.106;2023-12-04T08:05:37;3.50;1.00
17918;DHT22;9084;50.956;3.106;2023-12-04T08:08:03;3.60;1.00
17918;DHT22;9084;50.956;3.106;2023-12-04T08:10:29;3.50;1.00
17918;DHT22;9084;50.956;3.106;2023-12-04T08:12:55;3.50;1.00
17918;DHT22;9084;50.956;3.106;2023-12-04T08:15:21;3.50;1.00
17918;DHT22;9084;50.956;3.106;2023-12-04T08:17:49;3.60;1.00
17918;DHT22;9084;50.956;3.106;2023-12-04T08:20:14;3.60;1.00
17918;DHT22;9084;50.956;3.106;2023-12-04T08:22:42;3.60;1.00
17918;DHT22;9084;50.956;3.106;2023-12-04T08:25:11;3.60;1.00
17918;DHT22;9084;50.956;3.106;2023-12-04T08:27:37;3.60;1.00
17918;DHT22;9084;50.956;3.106;2023-12-04T08:30:04;3.60;1.00
17918;DHT22;9084;50.956;3.106;2023-12-04T08:32:30;3.60;1.00
17918;DHT22;9084;50.956;3.106;2023-12-04T08:34:56;3.70;1.00
17918;DHT22;9084;50.956;3.106;2023-12-04T08:37:24;3.70;1.00
17918;DHT22;9084;50.956;3.106;2023-12-04T08:39:49;3.70;1.00
17918;DHT22;9084;50.956;3.106;2023-12-04T08:42:15;3.70;1.00
17918;DHT22;9084;50.956;3.106;2023-12-04T08:44:40;3.80;1.00
17918;DHT22;9084;50.956;3.106;2023-12-04T08:47:08;3.80;1.00
17918;DHT22;9084;50.956;3.106;2023-12-04T08:49:34;3.90;1.00
17918;DHT22;9084;50.956;3.106;2023-12-04T08:52:00;3.90;1.00
17918;DHT22;9084;50.956;3.106;2023-12-04T08:54:25;3.90;1.00
17918;DHT22;9084;50.956;3.106;2023-12-04T08:56:51;3.90;1.00
17918;DHT22;9084;50.956;3.106;2023-12-04T08:59:16;4.00;1.00
17918;DHT22;9084;50.956;3.106;2023-12-04T09:01:45;4.00;1.00
17918;DHT22;9084;50.956;3.106;2023-12-04T09:04:11;4.10;1.00
17918;DHT22;9084;50.956;3.106;2023-12-04T09:06:37;4.10;1.00
17918;DHT22;9084;50.956;3.106;2023-12-04T09:09:05;4.20;1.00
17918;DHT22;9084;50.956;3.106;2023-12-04T09:11:33;4.20;1.00
17918;DHT22;9084;50.956;3.106;2023-12-04T09:14:01;4.20;1.00
17918;DHT22;9084;50.956;3.106;2023-12-04T09:16:29;4.20;1.00
17918;DHT22;9084;50.956;3.106;2023-12-04T09:18:55;4.20;1.00
17918;DHT22;9084;50.956;3.106;2023-12-04T09:21:20;4.20;1.00
17918;DHT22;9084;50.956;3.106;2023-12-04T09:23:46;4.20;1.00
17918;DHT22;9084;50.956;3.106;2023-12-04T09:26:15;4.20;1.00
17918;DHT22;9084;50.956;3.106;2023-12-04T09:28:43;4.30;1.00
17918;DHT22;9084;50.956;3.106;2023-12-04T09:31:11;4.30;1.00
17918;DHT22;9084;50.956;3.106;2023-12-04T09:33:39;4.30;1.00
17918;DHT22;9084;50.956;3.106;2023-12-04T09:36:08;4.30;1.00
17918;DHT22;9084;50.956;3.106;2023-12-04T09:38:34;4.30;1.00
17918;DHT22;9084;50.956;3.106;2023-12-04T09:41:01;4.40;1.00
17918;DHT22;9084;50.956;3.106;2023-12-04T09:43:31;4.30;1.00
17918;DHT22;9084;50.956;3.106;2023-12-04T09:45:59;4.30;1.00
17918;DHT22;9084;50.956;3.106;2023-12-04T09:48:29;4.30;1.00
17918;DHT22;9084;50.956;3.106;2023-12-04T09:50:59;4.30;2.90
17918;DHT22;9084;50.956;3.106;2023-12-04T09:53:26;4.30;11.60
17918;DHT22;9084;50.956;3.106;2023-12-04T09:55:53;4.40;27.30
17918;DHT22;9084;50.956;3.106;2023-12-04T09:58:21;4.40;41.00
17918;DHT22;9084;50.956;3.106;2023-12-04T10:00:50;4.50;24.30
17918;DHT22;9084;50.956;3.106;2023-12-04T10:03:22;4.60;11.20
17918;DHT22;9084;50.956;3.106;2023-12-04T10:05:47;4.60;7.70
17918;DHT22;9084;50.956;3.106;2023-12-04T10:08:14;4.60;8.30
17918;DHT22;9084;50.956;3.106;2023-12-04T10:10:39;4.60;8.60
17918;DHT22;9084;50.956;3.106;2023-12-04T10:13:05;4.60;10.80
17918;DHT22;9084;50.956;3.106;2023-12-04T10:15:32;4.60;1.00
17918;DHT22;9084;50.956;3.106;2023-12-04T10:17:58;4.50;1.00
17918;DHT22;9084;50.956;3.106;2023-12-04T10:20:23;4.50;10.80
17918;DHT22;9084;50.956;3.106;2023-12-04T10:23:01;4.50;10.50
17918;DHT22;9084;50.956;3.106;2023-12-04T10:25:30;4.40;7.30
17918;DHT22;9084;50.956;3.106;2023-12-04T10:28:12;4.40;13.00
17918;DHT22;9084;50.956;3.106;2023-12-04T10:30:42;4.40;17.40
17918;DHT22;9084;50.956;3.106;2023-12-04T10:33:11;4.40;24.70
17918;DHT22;9084;50.956;3.106;2023-12-04T10:35:39;4.50;27.60
17918;DHT22;9084;50.956;3.106;2023-12-04T10:38:07;4.50;37.90
17918;DHT22;9084;50.956;3.106;2023-12-04T10:40:34;4.60;29.80
17918;DHT22;9084;50.956;3.106;2023-12-04T10:43:22;4.60;31.60
17918;DHT22;9084;50.956;3.106;2023-12-04T10:45:51;4.60;30.00
17918;DHT22;9084;50.956;3.106;2023-12-04T10:48:18;4.70;32.20
17918;DHT22;9084;50.956;3.106;2023-12-04T10:50:48;4.70;36.20
17918;DHT22;9084;50.956;3.106;2023-12-04T10:53:15;4.70;20.80
17918;DHT22;9084;50.956;3.106;2023-12-04T10:55:43;4.70;24.20
17918;DHT22;9084;50.956;3.106;2023-12-04T10:58:14;4.70;30.30
17918;DHT22;9084;50.956;3.106;2023-12-04T11:00:46;4.70;27.10
17918;DHT22;9084;50.956;3.106;2023-12-04T11:06:00;4.70;46.40
17918;DHT22;9084;50.956;3.106;2023-12-04T11:08:28;4.60;52.90
17918;DHT22;9084;50.956;3.106;2023-12-04T11:10:59;4.70;56.90
17918;DHT22;9084;50.956;3.106;2023-12-04T11:13:28;4.70;71.10
17918;DHT22;9084;50.956;3.106;2023-12-04T11:16:01;4.60;72.10
17918;DHT22;9084;50.956;3.106;2023-12-04T11:18:32;4.60;90.90
17918;DHT22;9084;50.956;3.106;2023-12-04T11:21:07;4.60;96.70
17918;DHT22;9084;50.956;3.106;2023-12-04T11:23:34;4.60;99.40
17918;DHT22;9084;50.956;3.106;2023-12-04T11:26:03;4.70;99.90
17918;DHT22;9084;50.956;3.106;2023-12-04T11:28:32;4.70;99.20
17918;DHT22;9084;50.956;3.106;2023-12-04T11:30:59;4.70;96.90
17918;DHT22;9084;50.956;3.106;2023-12-04T11:33:28;4.80;99.90
17918;DHT22;9084;50.956;3.106;2023-12-04T11:36:09;4.80;98.50
17918;DHT22;9084;50.956;3.106;2023-12-04T11:38:36;4.90;99.90
17918;DHT22;9084;50.956;3.106;2023-12-04T11:41:21;4.90;99.40
17918;DHT22;9084;50.956;3.106;2023-12-04T11:43:47;5.00;99.90
17918;DHT22;9084;50.956;3.106;2023-12-04T11:46:23;5.10;98.50
17918;DHT22;9084;50.956;3.106;2023-12-04T11:48:50;5.20;80.10
17918;DHT22;9084;50.956;3.106;2023-12-04T11:51:44;5.30;54.80
17918;DHT22;9084;50.956;3.106;2023-12-04T11:54:17;5.30;42.60
17918;DHT22;9084;50.956;3.106;2023-12-04T11:59:37;5.50;25.80
17918;DHT22;9084;50.956;3.106;2023-12-04T12:02:10;5.50;12.10
17918;DHT22;9084;50.956;3.106;2023-12-04T12:04:37;5.50;11.40
17918;DHT22;9084;50.956;3.106;2023-12-04T12:07:05;5.40;17.20
17918;DHT22;9084;50.956;3.106;2023-12-04T12:09:32;5.30;30.20
17918;DHT22;9084;50.956;3.106;2023-12-04T12:12:02;5.30;44.10
17918;DHT22;9084;50.956;3.106;2023-12-04T12:14:29;5.20;56.40
17918;DHT22;9084;50.956;3.106;2023-12-04T12:16:55;5.20;68.80
17918;DHT22;9084;50.956;3.106;2023-12-04T12:19:23;5.20;84.90
17918;DHT22;9084;50.956;3.106;2023-12-04T12:21:49;5.20;99.00
17918;DHT22;9084;50.956;3.106;2023-12-04T12:24:19;5.20;99.90
17918;DHT22;9084;50.956;3.106;2023-12-04T12:26:45;5.30;99.90
17918;DHT22;9084;50.956;3.106;2023-12-04T12:29:11;5.30;99.90
17918;DHT22;9084;50.956;3.106;2023-12-04T12:31:40;5.40;99.90
17918;DHT22;9084;50.956;3.106;2023-12-04T12:34:07;5.50;99.90
17918;DHT22;9084;50.956;3.106;2023-12-04T12:36:33;5.50;99.90
17918;DHT22;9084;50.956;3.106;2023-12-04T12:39:00;5.60;99.90
17918;DHT22;9084;50.956;3.106;2023-12-04T12:41:26;5.60;93.80
17918;DHT22;9084;50.956;3.106;2023-12-04T12:43:52;5.60;96.80
17918;DHT22;9084;50.956;3.106;2023-12-04T12:46:22;5.50;99.90
17918;DHT22;9084;50.956;3.106;2023-12-04T12:48:51;5.50;99.90
17918;DHT22;9084;50.956;3.106;2023-12-04T12:51:18;5.50;99.90
17918;DHT22;9084;50.956;3.106;2023-12-04T12:53:47;5.50;99.90
17918;DHT22;9084;50.956;3.106;2023-12-04T12:56:19;5.40;99.90
17918;DHT22;9084;50.956;3.106;2023-12-04T12:58:45;5.40;99.90
17918;DHT22;9084;50.956;3.106;2023-12-04T13:01:10;5.40;99.90
17918;DHT22;9084;50.956;3.106;2023-12-04T13:03:39;5.40;99.90
17918;DHT22;9084;50.956;3.106;2023-12-04T13:06:05;5.40;99.90
17918;DHT22;9084;50.956;3.106;2023-12-04T13:08:36;5.40;99.90
17918;DHT22;9084;50.956;3.106;2023-12-04T13:11:01;5.40;99.90
17918;DHT22;9084;50.956;3.106;2023-12-04T13:13:27;5.30;99.90
17918;DHT22;9084;50.956;3.106;2023-12-04T13:15:53;5.40;99.90
17918;DHT22;9084;50.956;3.106;2023-12-04T13:18:19;5.40;99.90
17918;DHT22;9084;50.956;3.106;2023-12-04T13:20:45;5.40;99.90
17918;DHT22;9084;50.956;3.106;2023-12-04T13:23:11;5.40;99.90
17918;DHT22;9084;50.956;3.106;2023-12-04T13:25:36;5.40;99.90
17918;DHT22;9084;50.956;3.106;2023-12-04T13:28:02;5.40;99.90
17918;DHT22;9084;50.956;3.106;2023-12-04T13:30:29;5.40;99.90
17918;DHT22;9084;50.956;3.106;2023-12-04T13:32:58;5.40;99.90
17918;DHT22;9084;50.956;3.106;2023-12-04T13:35:24;5.40;99.90
17918;DHT22;9084;50.956;3.106;2023-12-04T13:37:50;5.40;99.90
17918;DHT22;9084;50.956;3.106;2023-12-04T13:40:20;5.40;99.90
17918;DHT22;9084;50.956;3.106;2023-12-04T13:42:46;5.40;99.90
17918;DHT22;9084;50.956;3.106;2023-12-04T13:45:33;5.40;99.90
17918;DHT22;9084;50.956;3.106;2023-12-04T13:48:00;5.40;99.90
17918;DHT22;9084;50.956;3.106;2023-12-04T13:50:26;5.30;99.90
17918;DHT22;9084;50.956;3.106;2023-12-04T13:52:54;5.40;99.90
17918;DHT22;9084;50.956;3.106;2023-12-04T13:55:26;5.50;99.90
17918;DHT22;9084;50.956;3.106;2023-12-04T13:58:18;5.40;99.90
17918;DHT22;9084;50.956;3.106;2023-12-04T14:01:02;5.40;99.90
17918;DHT22;9084;50.956;3.106;2023-12-04T14:03:38;5.40;99.90
17918;DHT22;9084;50.956;3.106;2023-12-04T14:06:04;5.40;99.90
17918;DHT22;9084;50.956;3.106;2023-12-04T14:08:29;5.40;99.90
17918;DHT22;9084;50.956;3.106;2023-12-04T14:10:57;5.40;99.90
17918;DHT22;9084;50.956;3.106;2023-12-04T14:13:23;5.40;99.90
17918;DHT22;9084;50.956;3.106;2023-12-04T14:15:53;5.40;99.90
17918;DHT22;9084;50.956;3.106;2023-12-04T14:18:20;5.40;99.90
17918;DHT22;9084;50.956;3.106;2023-12-04T14:20:46;5.40;99.90
17918;DHT22;9084;50.956;3.106;2023-12-04T14:23:13;5.40;99.90
17918;DHT22;9084;50.956;3.106;2023-12-04T14:25:41;5.40;99.90
17918;DHT22;9084;50.956;3.106;2023-12-04T14:28:09;5.40;99.90
17918;DHT22;9084;50.956;3.106;2023-12-04T14:30:37;5.40;99.90
17918;DHT22;9084;50.956;3.106;2023-12-04T14:33:02;5.40;99.90
17918;DHT22;9084;50.956;3.106;2023-12-04T14:35:28;5.40;99.90
17918;DHT22;9084;50.956;3.106;2023-12-04T14:37:54;5.40;99.90
17918;DHT22;9084;50.956;3.106;2023-12-04T14:40:19;5.40;99.90
17918;DHT22;9084;50.956;3.106;2023-12-04T14:42:52;5.40;99.90
17918;DHT22;9084;50.956;3.106;2023-12-04T14:45:18;5.40;99.90
17918;DHT22;9084;50.956;3.106;2023-12-04T14:47:44;5.40;99.90
17918;DHT22;9084;50.956;3.106;2023-12-04T14:50:09;5.40;99.90
17918;DHT22;9084;50.956;3.106;2023-12-04T14:52:36;5.40;99.90
17918;DHT22;9084;50.956;3.106;2023-12-04T14:55:12;5.40;99.90
17918;DHT22;9084;50.956;3.106;2023-12-04T14:57:53;5.40;99.90
17918;DHT22;9084;50.956;3.106;2023-12-04T15:00:21;5.30;99.90
17918;DHT22;9084;50.956;3.106;2023-12-04T15:03:21;5.40;99.90
17918;DHT22;9084;50.956;3.106;2023-12-04T15:06:08;5.40;99.90
17918;DHT22;9084;50.956;3.106;2023-12-04T15:08:37;5.40;99.90
17918;DHT22;9084;50.956;3.106;2023-12-04T15:11:21;5.30;99.90
17918;DHT22;9084;50.956;3.106;2023-12-04T15:14:05;5.40;99.90
17918;DHT22;9084;50.956;3.106;2023-12-04T15:16:31;5.40;99.90
17918;DHT22;9084;50.956;3.106;2023-12-04T15:18:56;5.30;99.90
17918;DHT22;9084;50.956;3.106;2023-12-04T15:21:24;5.30;99.90
17918;DHT22;9084;50.956;3.106;2023-12-04T15:23:50;5.20;99.90
17918;DHT22;9084;50.956;3.106;2023-12-04T15:26:17;5.20;99.90
17918;DHT22;9084;50.956;3.106;2023-12-04T15:28:45;5.20;99.90
17918;DHT22;9084;50.956;3.106;2023-12-04T15:31:11;5.20;99.90
17918;DHT22;9084;50.956;3.106;2023-12-04T15:33:37;5.30;99.90
17918;DHT22;9084;50.956;3.106;2023-12-04T15:36:03;5.40;99.90
17918;DHT22;9084;50.956;3.106;2023-12-04T15:38:29;5.40;99.90
17918;DHT22;9084;50.956;3.106;2023-12-04T15:40:57;5.40;99.90
17918;DHT22;9084;50.956;3.106;2023-12-04T15:43:23;5.40;99.90
17918;DHT22;9084;50.956;3.106;2023-12-04T15:45:48;5.50;99.90
17918;DHT22;9084;50.956;3.106;2023-12-04T15:48:14;5.60;99.90
17918;DHT22;9084;50.956;3.106;2023-12-04T15:50:44;5.60;99.90
17918;DHT22;9084;50.956;3.106;2023-12-04T15:53:10;5.60;99.90
17918;DHT22;9084;50.956;3.106;2023-12-04T15:55:36;5.60;99.90
17918;DHT22;9084;50.956;3.106;2023-12-04T15:58:01;5.70;99.90
17918;DHT22;9084;50.956;3.106;2023-12-04T16:00:29;5.70;99.90
17918;DHT22;9084;50.956;3.106;2023-12-04T16:02:55;5.60;99.90
17918;DHT22;9084;50.956;3.106;2023-12-04T16:05:21;5.70;99.90
17918;DHT22;9084;50.956;3.106;2023-12-04T16:07:46;5.60;99.90
17918;DHT22;9084;50.956;3.106;2023-12-04T16:10:14;5.50;99.90
17918;DHT22;9084;50.956;3.106;2023-12-04T16:12:40;5.40;99.90
17918;DHT22;9084;50.956;3.106;2023-12-04T16:15:07;5.30;99.90
17918;DHT22;9084;50.956;3.106;2023-12-04T16:17:34;5.30;99.90
17918;DHT22;9084;50.956;3.106;2023-12-04T16:20:01;5.30;99.90